createdAt,value
2022-09-15T00:00:12.481Z,993.75
2022-09-15T00:00:33.527Z,993.75
2022-09-15T00:00:54.584Z,993.75
2022-09-15T00:01:15.801Z,993.75
2022-09-15T00:01:36.943Z,993.77
2022-09-15T00:01:58.073Z,993.77
2022-09-15T00:02:19.245Z,993.77
2022-09-15T00:02:40.474Z,993.73
2022-09-15T00:03:01.715Z,993.77
2022-09-15T00:03:22.886Z,993.77
2022-09-15T00:03:43.915Z,993.79
2022-09-15T00:04:04.971Z,993.79
2022-09-15T00:04:26.022Z,993.77
2022-09-15T00:04:47.073Z,993.79
2022-09-15T00:05:08.134Z,993.77
2022-09-15T00:05:29.210Z,993.77
2022-09-15T00:05:50.249Z,993.79
2022-09-15T00:06:11.300Z,993.77
2022-09-15T00:06:32.345Z,993.77
2022-09-15T00:06:53.399Z,993.77
2022-09-15T00:07:14.443Z,993.79
2022-09-15T00:07:35.507Z,993.79
2022-09-15T00:07:56.544Z,993.79
2022-09-15T00:08:17.597Z,993.81
2022-09-15T00:08:38.769Z,993.81
2022-09-15T00:08:59.931Z,993.81
2022-09-15T00:09:20.950Z,993.83
2022-09-15T00:09:42.014Z,993.81
2022-09-15T00:10:03.053Z,993.81
2022-09-15T00:10:24.108Z,993.83
2022-09-15T00:10:45.161Z,993.81
2022-09-15T00:11:06.213Z,993.81
2022-09-15T00:11:27.281Z,993.81
2022-09-15T00:11:48.328Z,993.81
2022-09-15T00:12:09.421Z,993.81
2022-09-15T00:12:30.430Z,993.81
2022-09-15T00:12:51.517Z,993.81
2022-09-15T00:13:12.632Z,993.81
2022-09-15T00:13:33.705Z,993.81
2022-09-15T00:13:54.772Z,993.81
2022-09-15T00:14:15.806Z,993.79
2022-09-15T00:14:36.850Z,993.81
2022-09-15T00:14:57.900Z,993.79
2022-09-15T00:15:18.977Z,993.79
2022-09-15T00:15:40.039Z,993.79
2022-09-15T00:16:01.085Z,993.81
2022-09-15T00:16:22.199Z,993.79
2022-09-15T00:16:43.288Z,993.79
2022-09-15T00:17:04.398Z,993.79
2022-09-15T00:17:25.427Z,993.81
2022-09-15T00:17:46.477Z,993.79
2022-09-15T00:18:07.547Z,993.77
2022-09-15T00:18:28.590Z,993.81
2022-09-15T00:18:49.789Z,993.79
2022-09-15T00:19:10.840Z,993.81
2022-09-15T00:19:31.891Z,993.79
2022-09-15T00:19:52.943Z,993.77
2022-09-15T00:20:14.016Z,993.77
2022-09-15T00:20:35.057Z,993.79
2022-09-15T00:20:56.114Z,993.77
2022-09-15T00:21:17.167Z,993.79
2022-09-15T00:21:38.219Z,993.79
2022-09-15T00:21:59.269Z,993.79
2022-09-15T00:22:20.313Z,993.79
2022-09-15T00:22:41.367Z,993.77
2022-09-15T00:23:02.431Z,993.79
2022-09-15T00:23:23.501Z,993.75
2022-09-15T00:23:44.537Z,993.79
2022-09-15T00:24:05.737Z,993.79
2022-09-15T00:24:26.817Z,993.77
2022-09-15T00:24:47.825Z,993.75
2022-09-15T00:25:08.879Z,993.75
2022-09-15T00:25:29.962Z,993.73
2022-09-15T00:25:51.009Z,993.75
2022-09-15T00:26:12.075Z,993.75
2022-09-15T00:26:33.142Z,993.75
2022-09-15T00:26:54.188Z,993.75
2022-09-15T00:27:15.252Z,993.75
2022-09-15T00:27:36.323Z,993.75
2022-09-15T00:27:57.402Z,993.75
2022-09-15T00:28:18.436Z,993.71
2022-09-15T00:28:39.498Z,993.73
2022-09-15T00:29:00.542Z,993.73
2022-09-15T00:29:21.622Z,993.71
2022-09-15T00:29:42.664Z,993.73
2022-09-15T00:30:03.714Z,993.73
2022-09-15T00:30:24.786Z,993.73
2022-09-15T00:30:45.984Z,993.75
2022-09-15T00:31:07.075Z,993.73
2022-09-15T00:31:28.403Z,993.73
2022-09-15T00:31:49.447Z,993.75
2022-09-15T00:32:10.503Z,993.73
2022-09-15T00:32:31.596Z,993.73
2022-09-15T00:32:52.637Z,993.73
2022-09-15T00:33:13.693Z,993.75
2022-09-15T00:33:34.741Z,993.75
2022-09-15T00:33:55.785Z,993.73
2022-09-15T00:34:16.842Z,993.73
2022-09-15T00:34:38.033Z,993.75
2022-09-15T00:34:59.102Z,993.73
2022-09-15T00:35:20.139Z,993.75
2022-09-15T00:35:41.197Z,993.71
2022-09-15T00:36:02.247Z,993.73
2022-09-15T00:36:23.307Z,993.67
2022-09-15T00:36:44.358Z,993.71
2022-09-15T00:37:05.435Z,993.65
2022-09-15T00:37:26.474Z,993.71
2022-09-15T00:37:47.524Z,993.69
2022-09-15T00:38:08.605Z,993.69
2022-09-15T00:38:29.630Z,993.69
2022-09-15T00:38:50.676Z,993.69
2022-09-15T00:39:11.845Z,993.69
2022-09-15T00:39:32.847Z,993.69
2022-09-15T00:39:54.071Z,993.67
2022-09-15T00:40:15.193Z,993.67
2022-09-15T00:40:36.229Z,993.67
2022-09-15T00:40:57.278Z,993.67
2022-09-15T00:41:18.336Z,993.65
2022-09-15T00:41:39.381Z,993.67
2022-09-15T00:42:00.431Z,993.65
2022-09-15T00:42:21.485Z,993.67
2022-09-15T00:42:42.568Z,993.67
2022-09-15T00:43:03.594Z,993.67
2022-09-15T00:43:24.661Z,993.69
2022-09-15T00:43:45.741Z,993.69
2022-09-15T00:44:06.764Z,993.67
2022-09-15T00:44:27.815Z,993.67
2022-09-15T00:44:48.907Z,993.67
2022-09-15T00:45:09.958Z,993.69
2022-09-15T00:45:31.058Z,993.69
2022-09-15T00:45:52.116Z,993.69
2022-09-15T00:46:13.408Z,993.69
2022-09-15T00:46:34.448Z,993.69
2022-09-15T00:47:17.661Z,993.69
2022-09-15T00:47:22.473Z,993.69
2022-09-15T00:47:43.527Z,993.71
2022-09-15T00:48:04.577Z,993.65
2022-09-15T00:48:25.625Z,993.73
2022-09-15T00:48:46.672Z,993.73
2022-09-15T00:49:07.774Z,993.71
2022-09-15T00:49:28.806Z,993.73
2022-09-15T00:49:49.874Z,993.73
2022-09-15T00:50:10.930Z,993.69
2022-09-15T00:50:31.982Z,993.73
2022-09-15T00:50:53.027Z,993.73
2022-09-15T00:51:14.082Z,993.73
2022-09-15T00:51:35.134Z,993.67
2022-09-15T00:51:56.203Z,993.67
2022-09-15T00:52:17.259Z,993.67
2022-09-15T00:52:38.312Z,993.67
2022-09-15T00:52:59.375Z,993.67
2022-09-15T00:53:20.443Z,993.69
2022-09-15T00:53:41.539Z,993.67
2022-09-15T00:54:02.540Z,993.67
2022-09-15T00:54:23.727Z,993.67
2022-09-15T00:54:44.722Z,993.67
2022-09-15T00:55:05.904Z,993.65
2022-09-15T00:55:26.958Z,993.67
2022-09-15T00:55:48.033Z,993.67
2022-09-15T00:56:09.067Z,993.65
2022-09-15T00:56:30.131Z,993.65
2022-09-15T00:56:51.178Z,993.65
2022-09-15T00:57:12.225Z,993.63
2022-09-15T00:57:33.291Z,993.63
2022-09-15T00:57:54.362Z,993.65
2022-09-15T00:58:15.444Z,993.63
2022-09-15T00:58:36.486Z,993.65
2022-09-15T00:58:57.540Z,993.59
2022-09-15T00:59:18.585Z,993.65
2022-09-15T00:59:39.635Z,993.65
2022-09-15T01:00:00.688Z,993.65
2022-09-15T01:00:21.912Z,993.61
2022-09-15T01:00:42.979Z,993.67
2022-09-15T01:01:04.117Z,993.63
2022-09-15T01:01:25.378Z,993.65
2022-09-15T01:01:46.617Z,993.63
2022-09-15T01:02:07.818Z,993.65
2022-09-15T01:02:28.929Z,993.65
2022-09-15T01:02:49.983Z,993.65
2022-09-15T01:03:11.035Z,993.67
2022-09-15T01:03:32.081Z,993.67
2022-09-15T01:03:53.140Z,993.69
2022-09-15T01:04:14.199Z,993.69
2022-09-15T01:04:35.254Z,993.73
2022-09-15T01:04:58.559Z,993.69
2022-09-15T01:05:19.897Z,993.73
2022-09-15T01:05:41.061Z,993.73
2022-09-15T01:06:02.116Z,993.71
2022-09-15T01:06:23.161Z,993.73
2022-09-15T01:06:44.261Z,993.73
2022-09-15T01:07:05.283Z,993.73
2022-09-15T01:07:26.332Z,993.75
2022-09-15T01:07:47.401Z,993.77
2022-09-15T01:08:08.447Z,993.75
2022-09-15T01:08:29.493Z,993.75
2022-09-15T01:08:50.659Z,993.77
2022-09-15T01:09:11.709Z,993.73
2022-09-15T01:09:32.792Z,993.75
2022-09-15T01:09:53.816Z,993.75
2022-09-15T01:10:15.004Z,993.73
2022-09-15T01:10:36.068Z,993.73
2022-09-15T01:10:57.125Z,993.71
2022-09-15T01:11:18.181Z,993.69
2022-09-15T01:11:39.227Z,993.69
2022-09-15T01:12:00.282Z,993.65
2022-09-15T01:12:21.335Z,993.63
2022-09-15T01:12:42.387Z,993.59
2022-09-15T01:13:03.466Z,993.59
2022-09-15T01:13:24.492Z,993.55
2022-09-15T01:13:45.545Z,993.57
2022-09-15T01:14:06.593Z,993.55
2022-09-15T01:14:27.656Z,993.55
2022-09-15T01:14:48.713Z,993.55
2022-09-15T01:15:09.831Z,993.53
2022-09-15T01:15:30.860Z,993.53
2022-09-15T01:15:51.939Z,993.55
2022-09-15T01:16:13.045Z,993.57
2022-09-15T01:16:34.224Z,993.59
2022-09-15T01:16:55.307Z,993.61
2022-09-15T01:17:16.375Z,993.61
2022-09-15T01:17:37.418Z,993.61
2022-09-15T01:17:58.478Z,993.61
2022-09-15T01:18:19.532Z,993.63
2022-09-15T01:18:40.579Z,993.63
2022-09-15T01:19:01.634Z,993.67
2022-09-15T01:19:22.722Z,993.67
2022-09-15T01:19:43.740Z,993.65
2022-09-15T01:20:04.790Z,993.67
2022-09-15T01:20:25.842Z,993.63
2022-09-15T01:20:46.916Z,993.67
2022-09-15T01:21:07.970Z,993.65
2022-09-15T01:21:29.033Z,993.65
2022-09-15T01:21:50.066Z,993.65
2022-09-15T01:22:11.115Z,993.63
2022-09-15T01:22:32.191Z,993.65
2022-09-15T01:22:53.236Z,993.63
2022-09-15T01:23:14.285Z,993.59
2022-09-15T01:23:35.353Z,993.61
2022-09-15T01:23:56.401Z,993.61
2022-09-15T01:24:17.447Z,993.61
2022-09-15T01:24:38.524Z,993.63
2022-09-15T01:24:59.561Z,993.65
2022-09-15T01:25:20.642Z,993.63
2022-09-15T01:25:41.675Z,993.63
2022-09-15T01:26:02.749Z,993.63
2022-09-15T01:26:23.829Z,993.65
2022-09-15T01:26:44.872Z,993.65
2022-09-15T01:27:24.082Z,993.67
2022-09-15T01:27:42.659Z,993.65
2022-09-15T01:27:59.880Z,993.65
2022-09-15T01:28:20.918Z,993.67
2022-09-15T01:28:43.739Z,993.67
2022-09-15T01:29:04.891Z,993.67
2022-09-15T01:29:25.940Z,993.67
2022-09-15T01:29:46.998Z,993.67
2022-09-15T01:30:08.040Z,993.65
2022-09-15T01:30:29.088Z,993.67
2022-09-15T01:30:50.156Z,993.69
2022-09-15T01:31:11.289Z,993.67
2022-09-15T01:31:32.409Z,993.65
2022-09-15T01:31:53.485Z,993.65
2022-09-15T01:32:14.525Z,993.63
2022-09-15T01:32:35.602Z,993.65
2022-09-15T01:32:56.634Z,993.65
2022-09-15T01:33:17.689Z,993.65
2022-09-15T01:33:38.751Z,993.65
2022-09-15T01:33:59.803Z,993.67
2022-09-15T01:34:20.852Z,993.65
2022-09-15T01:34:41.911Z,993.67
2022-09-15T01:35:02.967Z,993.63
2022-09-15T01:35:24.025Z,993.65
2022-09-15T01:35:45.073Z,993.65
2022-09-15T01:36:06.172Z,993.67
2022-09-15T01:36:27.204Z,993.67
2022-09-15T01:36:48.258Z,993.65
2022-09-15T01:37:09.317Z,993.65
2022-09-15T01:37:30.362Z,993.65
2022-09-15T01:37:51.425Z,993.63
2022-09-15T01:38:12.479Z,993.63
2022-09-15T01:38:33.525Z,993.65
2022-09-15T01:38:54.582Z,993.65
2022-09-15T01:39:15.658Z,993.65
2022-09-15T01:39:36.693Z,993.61
2022-09-15T01:39:57.852Z,993.65
2022-09-15T01:40:18.973Z,993.63
2022-09-15T01:40:40.024Z,993.65
2022-09-15T01:41:01.094Z,993.63
2022-09-15T01:41:22.139Z,993.63
2022-09-15T01:41:43.313Z,993.63
2022-09-15T01:42:04.380Z,993.63
2022-09-15T01:42:25.437Z,993.65
2022-09-15T01:42:46.530Z,993.59
2022-09-15T01:43:07.655Z,993.59
2022-09-15T01:43:28.684Z,993.61
2022-09-15T01:43:49.751Z,993.59
2022-09-15T01:44:10.793Z,993.61
2022-09-15T01:44:31.853Z,993.59
2022-09-15T01:44:52.895Z,993.57
2022-09-15T01:45:13.999Z,993.59
2022-09-15T01:45:35.098Z,993.61
2022-09-15T01:45:56.194Z,993.61
2022-09-15T01:46:17.335Z,993.59
2022-09-15T01:46:38.398Z,993.61
2022-09-15T01:46:59.471Z,993.59
2022-09-15T01:47:20.543Z,993.63
2022-09-15T01:47:41.575Z,993.59
2022-09-15T01:48:02.637Z,993.61
2022-09-15T01:48:23.690Z,993.57
2022-09-15T01:48:44.739Z,993.59
2022-09-15T01:49:05.793Z,993.61
2022-09-15T01:49:26.897Z,993.59
2022-09-15T01:49:47.930Z,993.61
2022-09-15T01:50:08.989Z,993.61
2022-09-15T01:50:30.059Z,993.61
2022-09-15T01:50:51.116Z,993.61
2022-09-15T01:51:12.165Z,993.61
2022-09-15T01:51:33.219Z,993.63
2022-09-15T01:51:54.291Z,993.63
2022-09-15T01:52:15.481Z,993.61
2022-09-15T01:52:36.541Z,993.63
2022-09-15T01:52:57.589Z,993.63
2022-09-15T01:53:18.639Z,993.63
2022-09-15T01:53:39.699Z,993.61
2022-09-15T01:54:00.754Z,993.63
2022-09-15T01:54:21.800Z,993.65
2022-09-15T01:54:42.847Z,993.67
2022-09-15T01:55:03.926Z,993.67
2022-09-15T01:55:24.965Z,993.63
2022-09-15T01:55:46.017Z,993.65
2022-09-15T01:56:07.088Z,993.65
2022-09-15T01:56:28.124Z,993.67
2022-09-15T01:56:49.189Z,993.67
2022-09-15T01:57:10.234Z,993.69
2022-09-15T01:57:31.294Z,993.67
2022-09-15T01:57:52.464Z,993.65
2022-09-15T01:58:13.529Z,993.65
2022-09-15T01:58:34.572Z,993.65
2022-09-15T01:58:55.631Z,993.65
2022-09-15T01:59:16.681Z,993.63
2022-09-15T01:59:37.739Z,993.61
2022-09-15T01:59:58.798Z,993.59
2022-09-15T02:00:19.885Z,993.59
2022-09-15T02:00:40.901Z,993.59
2022-09-15T02:01:02.007Z,993.57
2022-09-15T02:01:23.066Z,993.55
2022-09-15T02:01:44.274Z,993.55
2022-09-15T02:02:05.467Z,993.53
2022-09-15T02:02:26.635Z,993.53
2022-09-15T02:02:47.687Z,993.51
2022-09-15T02:03:08.855Z,993.53
2022-09-15T02:03:29.909Z,993.53
2022-09-15T02:03:50.957Z,993.53
2022-09-15T02:04:12.020Z,993.53
2022-09-15T02:04:33.093Z,993.51
2022-09-15T02:04:54.135Z,993.51
2022-09-15T02:05:15.179Z,993.55
2022-09-15T02:05:36.230Z,993.53
2022-09-15T02:05:57.283Z,993.53
2022-09-15T02:06:18.335Z,993.55
2022-09-15T02:06:39.416Z,993.57
2022-09-15T02:07:00.461Z,993.59
2022-09-15T02:07:21.526Z,993.61
2022-09-15T02:07:42.583Z,993.63
2022-09-15T02:08:03.630Z,993.59
2022-09-15T02:08:24.687Z,993.63
2022-09-15T02:08:45.762Z,993.63
2022-09-15T02:09:06.795Z,993.65
2022-09-15T02:09:27.849Z,993.61
2022-09-15T02:09:48.902Z,993.65
2022-09-15T02:10:09.981Z,993.63
2022-09-15T02:10:31.006Z,993.65
2022-09-15T02:10:52.064Z,993.69
2022-09-15T02:11:13.117Z,993.65
2022-09-15T02:11:34.152Z,993.61
2022-09-15T02:11:55.200Z,993.61
2022-09-15T02:12:16.249Z,993.61
2022-09-15T02:12:37.300Z,993.63
2022-09-15T02:12:58.346Z,993.63
2022-09-15T02:13:19.404Z,993.61
2022-09-15T02:13:40.472Z,993.59
2022-09-15T02:14:01.537Z,993.61
2022-09-15T02:14:22.593Z,993.55
2022-09-15T02:14:43.643Z,993.55
2022-09-15T02:15:04.695Z,993.55
2022-09-15T02:15:25.756Z,993.51
2022-09-15T02:15:46.802Z,993.51
2022-09-15T02:16:07.937Z,993.49
2022-09-15T02:16:29.103Z,993.49
2022-09-15T02:16:50.279Z,993.49
2022-09-15T02:17:11.296Z,993.47
2022-09-15T02:17:32.347Z,993.45
2022-09-15T02:17:53.438Z,993.47
2022-09-15T02:18:14.479Z,993.45
2022-09-15T02:18:35.574Z,993.45
2022-09-15T02:18:56.721Z,993.49
2022-09-15T02:19:17.765Z,993.49
2022-09-15T02:19:38.821Z,993.47
2022-09-15T02:19:59.868Z,993.51
2022-09-15T02:20:20.924Z,993.51
2022-09-15T02:20:41.964Z,993.53
2022-09-15T02:21:03.035Z,993.51
2022-09-15T02:21:24.069Z,993.49
2022-09-15T02:21:45.133Z,993.49
2022-09-15T02:22:06.186Z,993.51
2022-09-15T02:22:27.242Z,993.51
2022-09-15T02:22:48.286Z,993.51
2022-09-15T02:23:09.335Z,993.49
2022-09-15T02:23:30.384Z,993.51
2022-09-15T02:23:51.583Z,993.49
2022-09-15T02:24:12.655Z,993.47
2022-09-15T02:24:33.711Z,993.47
2022-09-15T02:24:54.783Z,993.49
2022-09-15T02:25:15.839Z,993.47
2022-09-15T02:25:36.878Z,993.47
2022-09-15T02:25:57.930Z,993.49
2022-09-15T02:26:18.978Z,993.49
2022-09-15T02:26:40.027Z,993.51
2022-09-15T02:27:01.075Z,993.51
2022-09-15T02:27:22.245Z,993.49
2022-09-15T02:27:43.349Z,993.49
2022-09-15T02:28:04.370Z,993.49
2022-09-15T02:28:25.423Z,993.49
2022-09-15T02:28:46.462Z,993.49
2022-09-15T02:29:07.512Z,993.51
2022-09-15T02:29:28.570Z,993.51
2022-09-15T02:29:49.643Z,993.53
2022-09-15T02:30:10.686Z,993.53
2022-09-15T02:30:31.732Z,993.55
2022-09-15T02:30:52.782Z,993.55
2022-09-15T02:31:13.908Z,993.51
2022-09-15T02:31:35.019Z,993.53
2022-09-15T02:31:56.133Z,993.51
2022-09-15T02:32:17.193Z,993.53
2022-09-15T02:32:38.274Z,993.53
2022-09-15T02:32:59.317Z,993.53
2022-09-15T02:33:20.373Z,993.53
2022-09-15T02:33:41.427Z,993.53
2022-09-15T02:34:02.523Z,993.55
2022-09-15T02:34:23.565Z,993.53
2022-09-15T02:34:44.615Z,993.55
2022-09-15T02:35:05.667Z,993.53
2022-09-15T02:35:26.712Z,993.57
2022-09-15T02:35:47.768Z,993.55
2022-09-15T02:36:08.849Z,993.55
2022-09-15T02:36:29.879Z,993.53
2022-09-15T02:36:50.926Z,993.53
2022-09-15T02:37:11.987Z,993.53
2022-09-15T02:37:33.036Z,993.55
2022-09-15T02:37:54.199Z,993.55
2022-09-15T02:38:15.251Z,993.55
2022-09-15T02:38:36.461Z,993.55
2022-09-15T02:38:57.477Z,993.53
2022-09-15T02:39:18.529Z,993.55
2022-09-15T02:39:39.571Z,993.55
2022-09-15T02:40:00.786Z,993.55
2022-09-15T02:40:21.970Z,993.57
2022-09-15T02:40:43.018Z,993.53
2022-09-15T02:41:04.071Z,993.55
2022-09-15T02:41:25.151Z,993.55
2022-09-15T02:41:46.197Z,993.55
2022-09-15T02:42:07.238Z,993.55
2022-09-15T02:42:28.328Z,993.55
2022-09-15T02:42:49.355Z,993.55
2022-09-15T02:43:10.424Z,993.53
2022-09-15T02:43:31.481Z,993.57
2022-09-15T02:43:52.600Z,993.57
2022-09-15T02:44:13.614Z,993.55
2022-09-15T02:44:34.668Z,993.57
2022-09-15T02:44:55.708Z,993.55
2022-09-15T02:45:16.839Z,993.59
2022-09-15T02:45:37.985Z,993.55
2022-09-15T02:45:59.068Z,993.57
2022-09-15T02:46:20.086Z,993.55
2022-09-15T02:46:41.166Z,993.55
2022-09-15T02:47:02.193Z,993.55
2022-09-15T02:47:23.257Z,993.55
2022-09-15T02:47:44.305Z,993.55
2022-09-15T02:48:05.359Z,993.55
2022-09-15T02:48:26.532Z,993.55
2022-09-15T02:48:47.614Z,993.57
2022-09-15T02:49:08.642Z,993.55
2022-09-15T02:49:29.686Z,993.51
2022-09-15T02:49:50.785Z,993.57
2022-09-15T02:50:11.809Z,993.59
2022-09-15T02:50:32.871Z,993.53
2022-09-15T02:50:53.917Z,993.53
2022-09-15T02:51:14.974Z,993.55
2022-09-15T02:51:36.068Z,993.53
2022-09-15T02:51:57.155Z,993.53
2022-09-15T02:52:18.214Z,993.55
2022-09-15T02:52:39.385Z,993.57
2022-09-15T02:53:00.441Z,993.57
2022-09-15T02:53:21.496Z,993.55
2022-09-15T02:53:42.574Z,993.55
2022-09-15T02:54:03.612Z,993.55
2022-09-15T02:54:24.656Z,993.57
2022-09-15T02:54:45.703Z,993.55
2022-09-15T02:55:06.766Z,993.55
2022-09-15T02:55:27.837Z,993.57
2022-09-15T02:55:48.893Z,993.53
2022-09-15T02:56:09.928Z,993.55
2022-09-15T02:56:30.978Z,993.57
2022-09-15T02:56:52.026Z,993.57
2022-09-15T02:57:13.081Z,993.57
2022-09-15T02:57:34.148Z,993.57
2022-09-15T02:57:55.327Z,993.57
2022-09-15T02:58:16.334Z,993.59
2022-09-15T02:58:37.391Z,993.59
2022-09-15T02:58:58.437Z,993.59
2022-09-15T02:59:19.478Z,993.59
2022-09-15T02:59:40.543Z,993.59
2022-09-15T03:00:01.628Z,993.61
2022-09-15T03:00:22.657Z,993.63
2022-09-15T03:00:43.781Z,993.63
2022-09-15T03:01:04.915Z,993.63
2022-09-15T03:01:26.009Z,993.65
2022-09-15T03:01:47.138Z,993.67
2022-09-15T03:02:08.269Z,993.65
2022-09-15T03:02:29.367Z,993.67
2022-09-15T03:02:50.387Z,993.67
2022-09-15T03:03:11.609Z,993.67
2022-09-15T03:03:32.652Z,993.67
2022-09-15T03:03:53.693Z,993.71
2022-09-15T03:04:14.751Z,993.71
2022-09-15T03:04:35.794Z,993.73
2022-09-15T03:04:56.848Z,993.71
2022-09-15T03:05:17.901Z,993.71
2022-09-15T03:05:38.959Z,993.75
2022-09-15T03:06:00.000Z,993.71
2022-09-15T03:06:21.068Z,993.73
2022-09-15T03:06:42.104Z,993.71
2022-09-15T03:07:03.178Z,993.75
2022-09-15T03:07:24.221Z,993.73
2022-09-15T03:07:45.262Z,993.75
2022-09-15T03:08:06.313Z,993.73
2022-09-15T03:08:27.687Z,993.75
2022-09-15T03:08:48.710Z,993.77
2022-09-15T03:09:09.761Z,993.79
2022-09-15T03:09:30.905Z,993.79
2022-09-15T03:09:51.914Z,993.75
2022-09-15T03:10:12.961Z,993.77
2022-09-15T03:10:34.038Z,993.79
2022-09-15T03:10:55.073Z,993.77
2022-09-15T03:11:16.130Z,993.79
2022-09-15T03:11:37.178Z,993.77
2022-09-15T03:11:58.229Z,993.77
2022-09-15T03:12:19.293Z,993.83
2022-09-15T03:12:40.499Z,993.79
2022-09-15T03:13:01.548Z,993.79
2022-09-15T03:13:22.596Z,993.79
2022-09-15T03:14:04.659Z,993.81
2022-09-15T03:14:25.713Z,993.79
2022-09-15T03:14:46.760Z,993.81
2022-09-15T03:15:07.840Z,993.81
2022-09-15T03:15:28.881Z,993.79
2022-09-15T03:15:49.931Z,993.83
2022-09-15T03:16:11.075Z,993.83
2022-09-15T03:16:32.185Z,993.79
2022-09-15T03:16:53.212Z,993.81
2022-09-15T03:17:14.265Z,993.81
2022-09-15T03:17:35.326Z,993.83
2022-09-15T03:17:56.368Z,993.83
2022-09-15T03:18:17.416Z,993.83
2022-09-15T03:18:38.476Z,993.81
2022-09-15T03:18:59.546Z,993.83
2022-09-15T03:19:20.601Z,993.83
2022-09-15T03:19:41.692Z,993.83
2022-09-15T03:20:02.725Z,993.79
2022-09-15T03:20:23.773Z,993.85
2022-09-15T03:20:44.828Z,993.81
2022-09-15T03:21:05.886Z,993.79
2022-09-15T03:21:26.949Z,993.81
2022-09-15T03:21:47.997Z,993.81
2022-09-15T03:22:09.067Z,993.83
2022-09-15T03:22:30.101Z,993.81
2022-09-15T03:22:51.158Z,993.79
2022-09-15T03:23:12.208Z,993.83
2022-09-15T03:23:33.253Z,993.79
2022-09-15T03:23:54.317Z,993.81
2022-09-15T03:24:15.487Z,993.81
2022-09-15T03:24:36.570Z,993.79
2022-09-15T03:24:57.613Z,993.79
2022-09-15T03:25:18.675Z,993.79
2022-09-15T03:25:39.735Z,993.75
2022-09-15T03:26:00.764Z,993.81
2022-09-15T03:26:21.819Z,993.81
2022-09-15T03:26:42.875Z,993.83
2022-09-15T03:27:03.923Z,993.83
2022-09-15T03:27:24.983Z,993.77
2022-09-15T03:27:46.057Z,993.77
2022-09-15T03:28:07.105Z,993.79
2022-09-15T03:28:28.272Z,993.79
2022-09-15T03:28:49.327Z,993.79
2022-09-15T03:29:10.377Z,993.77
2022-09-15T03:29:31.425Z,993.81
2022-09-15T03:29:52.502Z,993.81
2022-09-15T03:30:13.547Z,993.81
2022-09-15T03:30:34.600Z,993.83
2022-09-15T03:30:55.653Z,993.83
2022-09-15T03:31:16.959Z,993.83
2022-09-15T03:31:38.055Z,993.83
2022-09-15T03:31:59.266Z,993.85
2022-09-15T03:32:20.310Z,993.85
2022-09-15T03:32:41.365Z,993.85
2022-09-15T03:33:02.414Z,993.85
2022-09-15T03:33:23.592Z,993.87
2022-09-15T03:33:44.646Z,993.87
2022-09-15T03:34:05.720Z,993.89
2022-09-15T03:34:26.756Z,993.87
2022-09-15T03:34:47.817Z,993.85
2022-09-15T03:35:08.867Z,993.87
2022-09-15T03:35:29.917Z,993.85
2022-09-15T03:35:50.976Z,993.87
2022-09-15T03:36:12.062Z,993.87
2022-09-15T03:36:33.173Z,993.89
2022-09-15T03:36:54.222Z,993.87
2022-09-15T03:37:15.262Z,993.91
2022-09-15T03:37:36.316Z,993.91
2022-09-15T03:37:57.372Z,993.89
2022-09-15T03:38:18.433Z,993.91
2022-09-15T03:38:39.541Z,993.92
2022-09-15T03:39:00.572Z,993.92
2022-09-15T03:39:21.635Z,993.92
2022-09-15T03:39:42.690Z,993.94
2022-09-15T03:40:03.876Z,993.92
2022-09-15T03:40:25.085Z,993.94
2022-09-15T03:40:46.121Z,993.94
2022-09-15T03:41:07.192Z,993.92
2022-09-15T03:41:28.231Z,993.96
2022-09-15T03:41:49.300Z,993.92
2022-09-15T03:42:10.336Z,993.92
2022-09-15T03:42:31.393Z,993.96
2022-09-15T03:42:52.452Z,993.96
2022-09-15T03:43:18.552Z,993.96
2022-09-15T03:43:40.494Z,993.94
2022-09-15T03:44:01.557Z,993.96
2022-09-15T03:44:22.609Z,993.98
2022-09-15T03:44:43.657Z,993.96
2022-09-15T03:45:04.710Z,993.96
2022-09-15T03:45:25.827Z,993.96
2022-09-15T03:45:46.973Z,993.96
2022-09-15T03:46:08.119Z,993.96
2022-09-15T03:46:29.258Z,993.98
2022-09-15T03:46:50.324Z,993.98
2022-09-15T03:47:11.371Z,993.98
2022-09-15T03:47:32.429Z,993.98
2022-09-15T03:47:53.469Z,993.94
2022-09-15T03:48:14.522Z,993.96
2022-09-15T03:48:35.603Z,993.94
2022-09-15T03:48:56.690Z,993.94
2022-09-15T03:49:17.756Z,993.94
2022-09-15T03:49:38.816Z,993.94
2022-09-15T03:49:59.922Z,993.92
2022-09-15T03:50:20.955Z,993.91
2022-09-15T03:50:42.008Z,993.94
2022-09-15T03:51:03.056Z,993.92
2022-09-15T03:51:24.113Z,993.94
2022-09-15T03:51:45.172Z,993.92
2022-09-15T03:52:06.253Z,993.91
2022-09-15T03:52:27.327Z,993.94
2022-09-15T03:52:48.356Z,993.94
2022-09-15T03:53:09.406Z,993.92
2022-09-15T03:53:30.456Z,993.96
2022-09-15T03:53:51.622Z,993.96
2022-09-15T03:54:12.800Z,993.96
2022-09-15T03:54:33.873Z,993.96
2022-09-15T03:54:54.903Z,993.98
2022-09-15T03:55:15.953Z,993.94
2022-09-15T03:55:37.016Z,993.96
2022-09-15T03:55:58.077Z,993.96
2022-09-15T03:56:19.116Z,993.96
2022-09-15T03:56:40.172Z,993.96
2022-09-15T03:57:01.234Z,993.98
2022-09-15T03:57:22.272Z,993.96
2022-09-15T03:57:43.327Z,994.00
2022-09-15T03:58:04.375Z,994.00
2022-09-15T03:58:30.145Z,993.98
2022-09-15T03:58:52.536Z,993.98
2022-09-15T03:59:13.746Z,994.02
2022-09-15T03:59:34.770Z,994.04
2022-09-15T03:59:55.819Z,994.02
2022-09-15T04:00:16.891Z,994.04
2022-09-15T04:00:37.979Z,994.06
2022-09-15T04:00:59.060Z,994.06
2022-09-15T04:01:20.204Z,994.02
2022-09-15T04:01:41.298Z,994.00
2022-09-15T04:02:02.459Z,994.02
2022-09-15T04:02:23.562Z,994.02
2022-09-15T04:02:44.656Z,994.04
2022-09-15T04:03:05.706Z,994.02
2022-09-15T04:03:26.788Z,994.04
2022-09-15T04:03:51.090Z,994.04
2022-09-15T04:04:12.555Z,994.06
2022-09-15T04:04:33.732Z,994.06
2022-09-15T04:04:54.789Z,994.08
2022-09-15T04:05:15.850Z,994.10
2022-09-15T04:05:36.922Z,994.08
2022-09-15T04:05:57.957Z,994.08
2022-09-15T04:06:19.016Z,994.08
2022-09-15T04:06:40.070Z,994.10
2022-09-15T04:07:01.119Z,994.10
2022-09-15T04:07:22.202Z,994.12
2022-09-15T04:07:43.265Z,994.14
2022-09-15T04:08:04.295Z,994.10
2022-09-15T04:08:25.336Z,994.16
2022-09-15T04:08:46.393Z,994.18
2022-09-15T04:09:07.438Z,994.16
2022-09-15T04:09:28.506Z,994.18
2022-09-15T04:09:49.736Z,994.16
2022-09-15T04:10:10.785Z,994.20
2022-09-15T04:10:31.831Z,994.18
2022-09-15T04:10:52.874Z,994.14
2022-09-15T04:11:13.939Z,994.16
2022-09-15T04:11:34.978Z,994.14
2022-09-15T04:11:56.057Z,994.14
2022-09-15T04:12:17.107Z,994.16
2022-09-15T04:12:38.207Z,994.14
2022-09-15T04:12:59.281Z,994.14
2022-09-15T04:13:20.334Z,994.14
2022-09-15T04:13:41.384Z,994.14
2022-09-15T04:14:02.436Z,994.16
2022-09-15T04:14:23.528Z,994.14
2022-09-15T04:14:44.549Z,994.14
2022-09-15T04:15:05.610Z,994.16
2022-09-15T04:15:26.671Z,994.18
2022-09-15T04:15:47.713Z,994.16
2022-09-15T04:16:08.885Z,994.16
2022-09-15T04:16:30.020Z,994.14
2022-09-15T04:16:51.066Z,994.10
2022-09-15T04:17:12.104Z,994.14
2022-09-15T04:17:33.150Z,994.12
2022-09-15T04:17:54.202Z,994.12
2022-09-15T04:18:15.254Z,994.14
2022-09-15T04:18:36.309Z,994.10
2022-09-15T04:18:57.521Z,994.10
2022-09-15T04:19:18.559Z,994.10
2022-09-15T04:19:39.607Z,994.10
2022-09-15T04:20:00.655Z,994.12
2022-09-15T04:20:21.742Z,994.10
2022-09-15T04:20:42.787Z,994.14
2022-09-15T04:21:03.845Z,994.12
2022-09-15T04:21:24.921Z,994.12
2022-09-15T04:21:45.969Z,994.12
2022-09-15T04:22:07.031Z,994.10
2022-09-15T04:22:28.068Z,994.14
2022-09-15T04:22:49.260Z,994.18
2022-09-15T04:23:10.293Z,994.18
2022-09-15T04:23:31.346Z,994.16
2022-09-15T04:23:52.527Z,994.16